Nakhon Phanom Airport

VTUW · Nakhon Phanom, Tailandia

METAR pasados VTUW · Nakhon Phanom Airport

A continuación puedes ver los METAR de los últimos días. Selecciona un año para ver los METAR más antiguos, desde el año 2007 en adelante.

20 de abril de 2024

Hora Código Tiempo Temp. Visibilidad Cielo nuboso Viento METAR/SPECI
13:00
V
36 °C 9 km 8.000 ft 190° 190° 5 kt METAR VTUW 200600Z 19005KT 130V240 9000 FEW030 BKN080 36/20 Q1004 NOSIG
12:00
V
36 °C 9 km - Var Var 4 kt METAR VTUW 200500Z VRB04KT 9000 NSC 36/20 Q1006 NOSIG
11:00
V
35 °C 8 km - 200° 200° 6 kt METAR VTUW 200400Z 20006KT 150V310 8000 NSC 35/22 Q1007 NOSIG
10:00
V
35 °C 8 km - 170° 170° 6 kt METAR VTUW 200300Z 17006KT 120V220 8000 NSC 35/23 Q1007 NOSIG
09:00
V
33 °C 8 km - 170° 170° 7 kt METAR VTUW 200200Z 17007KT 140V200 8000 NSC 33/24 Q1007 NOSIG
08:00
V
31 °C 8 km - 150° 150° 6 kt METAR VTUW 200100Z 15006KT 8000 NSC 31/23 Q1007 NOSIG
07:00
V
28 °C 8 km - 130° 130° 5 kt METAR VTUW 200000Z 13005KT 8000 NSC 28/24 Q1006 NOSIG
06:00
V
27 °C 8 km - 130° 130° 4 kt METAR VTUW 192300Z 13004KT 100V160 8000 FEW030 27/24 Q1005 NOSIG
05:00
V
27 °C 8 km - 130° 130° 5 kt METAR VTUW 192200Z 13005KT 8000 FEW030 SCT080 27/24 Q1004 NOSIG

19 de abril de 2024

Hora Código Tiempo Temp. Visibilidad Cielo nuboso Viento METAR/SPECI
21:00
V
30 °C 9 km - 110° 110° 4 kt METAR VTUW 191400Z 11004KT 9000 NSC 30/24 Q1004 NOSIG
20:00
V
30 °C 9 km - 140° 140° 2 kt METAR VTUW 191300Z 14002KT 9000 FEW040 30/25 Q1004 NOSIG
19:00
V
30 °C 10 km+ - 320° 320° 3 kt METAR VTUW 191200Z 32003KT 9999 FEW040 30/25 Q1003 NOSIG
18:00
V
34 °C 10 km+ - Var Var 1 kt METAR VTUW 191100Z VRB01KT 9999 FEW040 34/21 Q1002 NOSIG
17:00
V
34 °C 10 km+ - 160° 160° 3 kt METAR VTUW 191000Z 16003KT 130V200 9999 FEW040 34/21 Q1002 NOSIG
16:00
V
35 °C 10 km+ - 150° 150° 4 kt METAR VTUW 190900Z 15004KT 120V190 9999 FEW040 35/20 Q1003 NOSIG
15:00
V
36 °C 10 km+ - 170° 170° 6 kt METAR VTUW 190800Z 17006KT 110V220 9999 FEW040 36/20 Q1003 NOSIG
14:00
V
34 °C 10 km+ - 150° 150° 8 kt METAR VTUW 190700Z 15008KT 120V190 9999 FEW040 SCT090 34/22 Q1004 NOSIG
13:00
V
34 °C 10 km+ - 170° 170° 7 kt METAR VTUW 190600Z 17007KT 140V200 9999 FEW040 34/22 Q1005 NOSIG
12:00
V
34 °C 9 km - 140° 140° 6 kt METAR VTUW 190500Z 14006KT 110V180 9000 SCT040 34/23 Q1006 NOSIG
11:00
V
35 °C 9 km - 140° 140° 8 kt METAR VTUW 190400Z 14008KT 110V180 9000 NSC 35/24 Q1007 NOSIG
10:00
V
33 °C 8 km - 180° 180° 4 kt METAR VTUW 190300Z 18004KT 130V240 8000 NSC 33/24 Q1007 NOSIG
09:00
V
31 °C 8 km - 060° 060° 5 kt METAR VTUW 190200Z 06005KT 8000 NSC 31/23 Q1008 NOSIG
08:00
V
30 °C 8 km - 060° 060° 3 kt METAR VTUW 190100Z 06003KT 030V110 8000 NSC 30/23 Q1007 NOSIG
07:00
V
29 °C 8 km 8.000 ft 160° 160° 5 kt METAR VTUW 190000Z 16005KT 130V200 8000 FEW030 BKN080 29/23 Q1006 NOSIG
06:00
M
27 °C 7 km - 140° 140° 3 kt METAR VTUW 182300Z 14003KT 7000 NSC 27/23 Q1005 NOSIG
05:00
M
28 °C 7 km - 110° 110° 4 kt METAR VTUW 182200Z 11004KT 7000 NSC 28/24 Q1004 NOSIG

18 de abril de 2024

Hora Código Tiempo Temp. Visibilidad Cielo nuboso Viento METAR/SPECI
21:00
V
29 °C 10 km+ - 210° 210° 3 kt METAR VTUW 181400Z 21003KT 9999 FEW035 29/23 Q1004 NOSIG
20:00
V
32 °C 10 km+ - Var Var 2 kt METAR VTUW 181300Z VRB02KT 9999 FEW035 32/20 Q1004 NOSIG
19:00
V
32 °C 10 km+ - 050° 050° 3 kt METAR VTUW 181200Z 05003KT 030V090 9999 FEW035 32/22 Q1003 NOSIG
18:00
V
33 °C 10 km+ - 160° 160° 3 kt METAR VTUW 181100Z 16003KT 9999 FEW035 33/20 Q1002 NOSIG
17:00
V
34 °C 10 km+ - 190° 190° 8 kt METAR VTUW 181000Z 19008KT 130V230 9999 FEW035 34/20 Q1003 NOSIG
16:00
V
35 °C 10 km+ - 160° 160° 8 kt METAR VTUW 180900Z 16008KT 130V190 9999 FEW040 35/19 Q1003 RETS NOSIG
15:00
V
35 °C 10 km+ - 200° 200° 10 kt METAR VTUW 180800Z 20010KT 170V230 9999 TS VCSH FEW018CB SCT040 35/20 Q1003 NOSIG
14:00
V
38 °C 10 km+ - 230° 230° 4 kt METAR VTUW 180700Z 23004KT 190V300 9999 SCT040 38/19 Q1004 NOSIG
13:00
V
37 °C 9 km 4.000 ft Var Var 4 kt METAR VTUW 180600Z VRB04KT 9000 BKN040 37/20 Q1005 NOSIG
Cambiar esta información